METAR Data
IDs: Format: Raw Decoded Include TAF

Data at: 0852 UTC 13 Aug 2022

RJOO 130816Z VRB02KT 9999 R32R/1500VP2000U R32L/2000N -SHRA FEW010 SCT030 BKN/// 27/25 Q1006 RMK 1CU010 4CU030 A2973